createdAt,value
2023-01-25T00:01:06.394Z,4.32
2023-01-25T00:06:10.805Z,4.36
2023-01-25T00:11:13.378Z,4.15
2023-01-25T00:16:15.971Z,4.18
2023-01-25T00:21:21.800Z,4.33
2023-01-25T00:26:24.794Z,4.39
2023-01-25T00:31:33.305Z,4.32
2023-01-25T00:36:42.199Z,4.40
2023-01-25T00:41:46.286Z,4.36
2023-01-25T00:46:49.334Z,4.41
2023-01-25T00:51:55.313Z,4.34
2023-01-25T00:56:57.935Z,3.79
2023-01-25T01:02:01.271Z,4.07
2023-01-25T01:07:06.225Z,3.87
2023-01-25T01:12:09.160Z,4.15
2023-01-25T01:17:11.697Z,4.09
2023-01-25T01:22:16.900Z,4.25
2023-01-25T01:27:19.479Z,4.16
2023-01-25T01:32:22.372Z,4.09
2023-01-25T01:37:28.243Z,4.17
2023-01-25T01:42:30.795Z,3.98
2023-01-25T01:47:45.742Z,4.13
2023-01-25T01:52:50.667Z,4.16
2023-01-25T01:57:57.936Z,4.03
2023-01-25T02:03:02.081Z,4.01
2023-01-25T02:08:07.891Z,3.89
2023-01-25T02:13:11.344Z,3.93
2023-01-25T02:18:14.868Z,4.06
2023-01-25T02:23:26.786Z,3.97
2023-01-25T02:28:35.949Z,3.81
2023-01-25T02:33:38.537Z,3.85
2023-01-25T02:38:44.310Z,3.49
2023-01-25T02:43:48.413Z,3.72
2023-01-25T02:48:51.049Z,3.80
2023-01-25T02:53:53.984Z,3.84
2023-01-25T02:58:58.088Z,3.76
2023-01-25T03:04:01.162Z,3.82
2023-01-25T03:09:05.241Z,3.93
2023-01-25T03:14:10.185Z,3.85
2023-01-25T03:19:13.319Z,3.65
2023-01-25T03:24:16.104Z,3.47
2023-01-25T03:29:23.674Z,3.68
2023-01-25T03:34:26.885Z,3.63
2023-01-25T03:39:29.796Z,3.87
2023-01-25T03:44:33.845Z,3.92
2023-01-25T03:49:37.644Z,3.82
2023-01-25T03:54:42.595Z,3.82
2023-01-25T03:59:47.585Z,3.79
2023-01-25T04:04:50.260Z,3.72
2023-01-25T04:09:55.080Z,3.63
2023-01-25T04:14:59.095Z,3.57
2023-01-25T04:20:02.244Z,3.67
2023-01-25T04:25:11.759Z,3.64
2023-01-25T04:30:21.659Z,3.49
2023-01-25T04:35:25.544Z,3.22
2023-01-25T04:40:28.828Z,3.47
2023-01-25T04:45:33.972Z,3.50
2023-01-25T04:50:41.322Z,3.44
2023-01-25T04:55:47.943Z,3.56
2023-01-25T05:00:52.571Z,3.62
2023-01-25T05:05:55.603Z,3.55
2023-01-25T05:11:00.424Z,3.36
2023-01-25T05:16:23.166Z,3.30
2023-01-25T05:21:42.519Z,3.51
2023-01-25T05:27:03.597Z,3.47
2023-01-25T05:32:26.134Z,3.46
2023-01-25T05:37:29.012Z,3.51
2023-01-25T05:42:37.628Z,3.47
2023-01-25T05:47:44.428Z,3.36
2023-01-25T05:52:47.105Z,3.45
2023-01-25T05:57:50.349Z,3.33
2023-01-25T06:02:56.832Z,3.46
2023-01-25T06:08:01.031Z,3.01
2023-01-25T06:13:12.057Z,2.85
2023-01-25T06:18:16.093Z,2.79
2023-01-25T06:23:35.067Z,3.13
2023-01-25T06:28:38.736Z,2.96
2023-01-25T06:33:43.561Z,2.77
2023-01-25T06:38:50.728Z,3.05
2023-01-25T06:43:55.353Z,2.95
2023-01-25T06:48:59.404Z,2.93
2023-01-25T06:54:04.502Z,3.19
2023-01-25T06:59:07.058Z,2.73
2023-01-25T07:04:12.900Z,2.73
2023-01-25T07:09:15.751Z,2.98
2023-01-25T07:14:18.611Z,2.62
2023-01-25T07:19:22.811Z,2.44
2023-01-25T07:24:27.068Z,2.53
2023-01-25T07:29:29.791Z,2.64
2023-01-25T07:34:33.706Z,2.59
2023-01-25T07:39:36.824Z,2.60
2023-01-25T07:44:39.381Z,2.45
2023-01-25T07:49:49.461Z,2.48
2023-01-25T07:54:52.379Z,2.47
2023-01-25T07:59:55.118Z,2.70
2023-01-25T08:04:58.995Z,2.58
2023-01-25T08:10:01.975Z,2.75
2023-01-25T08:15:05.352Z,2.45
2023-01-25T08:20:10.620Z,2.63
2023-01-25T08:25:13.165Z,2.74
2023-01-25T08:30:16.336Z,2.29
2023-01-25T08:35:20.278Z,2.15
2023-01-25T08:40:23.227Z,2.00
2023-01-25T08:45:25.830Z,1.87
2023-01-25T08:50:29.745Z,1.93
2023-01-25T08:55:32.296Z,2.13
2023-01-25T09:00:34.865Z,2.15
2023-01-25T09:05:40.175Z,2.08
2023-01-25T09:10:42.860Z,2.24
2023-01-25T09:15:45.484Z,2.33
2023-01-25T09:20:49.591Z,2.31
2023-01-25T09:25:57.528Z,2.72
2023-01-25T09:31:19.742Z,2.56
2023-01-25T09:36:42.900Z,2.75
2023-01-25T09:42:19.836Z,2.75
2023-01-25T09:47:28.716Z,2.88
2023-01-25T09:52:57.008Z,2.59
2023-01-25T09:58:02.776Z,2.55
2023-01-25T10:03:16.136Z,2.59
2023-01-25T10:08:29.884Z,2.40
2023-01-25T10:13:32.528Z,2.27
2023-01-25T10:18:40.652Z,2.46
2023-01-25T10:24:02.930Z,2.78
2023-01-25T10:29:12.744Z,2.40
2023-01-25T10:34:20.201Z,2.44
2023-01-25T10:39:24.941Z,2.53
2023-01-25T10:44:28.972Z,2.28
2023-01-25T10:49:40.996Z,2.47
2023-01-25T10:54:46.164Z,2.68
2023-01-25T10:59:51.917Z,2.56
2023-01-25T11:04:54.493Z,2.77
2023-01-25T11:09:58.414Z,2.74
2023-01-25T11:15:24.378Z,2.55
2023-01-25T11:20:26.929Z,2.53
2023-01-25T11:25:32.750Z,2.60
2023-01-25T11:30:35.289Z,2.55
2023-01-25T11:35:42.622Z,2.65
2023-01-25T11:40:53.852Z,2.76
2023-01-25T11:46:17.904Z,2.64
2023-01-25T11:51:26.095Z,2.67
2023-01-25T11:56:41.364Z,2.70
2023-01-25T12:08:02.712Z,1.50
2023-01-25T12:13:13.826Z,2.49
2023-01-25T12:18:37.661Z,1.58
2023-01-25T12:23:54.245Z,2.59
2023-01-25T12:29:06.510Z,2.64
2023-01-25T12:34:15.240Z,2.45
2023-01-25T12:39:24.441Z,2.78
2023-01-25T12:44:34.426Z,2.71
2023-01-25T12:49:41.867Z,2.83
2023-01-25T12:54:46.660Z,2.91
2023-01-25T12:59:58.130Z,2.59
2023-01-25T13:05:13.293Z,2.65
2023-01-25T13:10:22.814Z,2.61
2023-01-25T13:15:43.498Z,2.47
2023-01-25T13:20:49.917Z,2.15
2023-01-25T13:25:52.587Z,2.48
2023-01-25T13:30:56.953Z,2.66
2023-01-25T13:35:59.521Z,2.63
2023-01-25T13:41:12.142Z,2.70
2023-01-25T13:46:22.913Z,2.11
2023-01-25T13:51:29.463Z,2.60
2023-01-25T13:56:34.725Z,2.37
2023-01-25T14:01:38.694Z,2.40
2023-01-25T14:06:42.279Z,2.52
2023-01-25T14:11:47.543Z,2.26
2023-01-25T14:17:03.979Z,2.57
2023-01-25T14:22:22.971Z,2.27
2023-01-25T14:27:25.705Z,2.60
2023-01-25T14:32:29.656Z,2.63
2023-01-25T14:37:32.221Z,2.29
2023-01-25T14:42:35.234Z,2.44
2023-01-25T14:47:41.111Z,2.54
2023-01-25T14:52:46.258Z,2.66
2023-01-25T14:57:50.717Z,2.67
2023-01-25T15:02:56.822Z,1.92
2023-01-25T15:08:15.564Z,2.04
2023-01-25T15:13:22.972Z,2.24
2023-01-25T15:18:48.430Z,2.57
2023-01-25T15:23:51.928Z,2.43
2023-01-25T15:28:58.408Z,2.54
2023-01-25T15:34:03.265Z,2.62
2023-01-25T15:39:07.163Z,2.40
2023-01-25T15:44:10.526Z,2.49
2023-01-25T15:49:23.222Z,2.12
2023-01-25T15:54:26.265Z,2.38
2023-01-25T15:59:29.465Z,2.57
2023-01-25T16:04:33.411Z,2.65
2023-01-25T16:09:35.949Z,2.72
2023-01-25T16:14:38.570Z,2.44
2023-01-25T16:19:42.693Z,2.23
2023-01-25T16:24:46.017Z,2.32
2023-01-25T16:29:48.621Z,2.05
2023-01-25T16:34:53.282Z,2.23
2023-01-25T16:39:56.165Z,2.21
2023-01-25T16:44:58.962Z,2.28
2023-01-25T16:50:03.449Z,2.42
2023-01-25T16:55:06.849Z,2.24
2023-01-25T17:00:13.591Z,2.16
2023-01-25T17:05:17.578Z,2.10
2023-01-25T17:10:20.863Z,1.89
2023-01-25T17:15:23.402Z,2.04
2023-01-25T17:20:27.312Z,2.18
2023-01-25T17:25:33.676Z,1.95
2023-01-25T17:30:36.831Z,2.15
2023-01-25T17:35:40.974Z,2.05
2023-01-25T17:40:43.500Z,1.78
2023-01-25T17:45:46.376Z,1.61
2023-01-25T17:51:01.149Z,1.92
2023-01-25T17:56:05.522Z,2.25
2023-01-25T18:01:14.218Z,2.04
2023-01-25T18:06:20.195Z,2.21
2023-01-25T18:11:25.288Z,2.24
2023-01-25T18:16:30.344Z,2.33
2023-01-25T18:21:35.153Z,1.91
2023-01-25T18:26:38.392Z,1.73
2023-01-25T18:31:42.161Z,1.56
2023-01-25T18:36:48.265Z,1.84
2023-01-25T18:41:51.001Z,1.86
2023-01-25T18:46:53.710Z,1.81
2023-01-25T18:52:11.026Z,1.68
2023-01-25T18:57:15.488Z,1.90
2023-01-25T19:02:19.434Z,1.49
2023-01-25T19:07:23.380Z,1.79
2023-01-25T19:12:26.000Z,1.62
2023-01-25T19:17:28.652Z,1.62
2023-01-25T19:22:32.540Z,1.80
2023-01-25T19:27:35.115Z,1.90
2023-01-25T19:32:37.687Z,1.97
2023-01-25T19:37:41.681Z,1.54
2023-01-25T19:42:44.222Z,1.78
2023-01-25T19:47:46.783Z,1.84
2023-01-25T19:52:50.669Z,2.14
2023-01-25T19:57:53.249Z,2.17
2023-01-25T20:02:59.345Z,2.13
2023-01-25T20:08:08.341Z,0.98
2023-01-25T20:13:11.626Z,1.56
2023-01-25T20:18:14.279Z,1.61
2023-01-25T20:23:18.162Z,1.77
2023-01-25T20:28:20.699Z,1.92
2023-01-25T20:33:23.233Z,1.35
2023-01-25T20:38:31.117Z,1.41
2023-01-25T20:43:34.382Z,1.65
2023-01-25T20:48:37.196Z,1.80
2023-01-25T20:53:41.843Z,1.83
2023-01-25T20:58:50.177Z,1.20
2023-01-25T21:03:54.298Z,1.22
2023-01-25T21:08:59.200Z,1.42
2023-01-25T21:14:01.768Z,1.16
2023-01-25T21:19:07.082Z,1.31
2023-01-25T21:24:11.780Z,1.51
2023-01-25T21:29:14.419Z,1.54
2023-01-25T21:34:16.966Z,1.61
2023-01-25T21:39:20.840Z,1.30
2023-01-25T21:44:41.752Z,1.14
2023-01-25T21:50:02.164Z,1.40
2023-01-25T21:55:07.200Z,1.51
2023-01-25T22:00:11.227Z,1.32
2023-01-25T22:05:14.137Z,1.39
2023-01-25T22:10:18.321Z,1.16
2023-01-25T22:15:20.887Z,0.96
2023-01-25T22:20:23.427Z,0.71
2023-01-25T22:25:27.291Z,0.83
2023-01-25T22:30:31.032Z,0.88
2023-01-25T22:35:33.806Z,1.22
2023-01-25T22:40:37.653Z,1.41
2023-01-25T22:45:40.422Z,1.12
2023-01-25T22:50:43.059Z,1.36
2023-01-25T22:55:46.927Z,1.08
2023-01-25T23:00:49.449Z,1.31
2023-01-25T23:06:00.219Z,1.05
2023-01-25T23:11:05.825Z,1.36
2023-01-25T23:16:10.581Z,1.38
2023-01-25T23:21:13.173Z,1.32
2023-01-25T23:26:17.550Z,1.41
2023-01-25T23:31:22.513Z,1.47
2023-01-25T23:36:27.395Z,1.28
2023-01-25T23:41:31.960Z,1.32
2023-01-25T23:46:34.726Z,1.18
2023-01-25T23:51:37.874Z,1.26
2023-01-25T23:56:41.776Z,1.21
